createdAt,value
2022-11-17T00:01:39.727Z,1.80
2022-11-17T00:04:42.541Z,1.40
2022-11-17T00:07:45.915Z,0.73
2022-11-17T00:10:48.604Z,2.10
2022-11-17T00:14:10.036Z,1.50
2022-11-17T00:17:14.077Z,1.58
2022-11-17T00:20:49.033Z,1.80
2022-11-17T00:23:52.026Z,1.27
2022-11-17T00:27:03.818Z,1.75
2022-11-17T00:30:08.702Z,1.40
2022-11-17T00:33:28.992Z,1.58
2022-11-17T00:36:31.892Z,1.20
2022-11-17T00:39:35.493Z,1.65
2022-11-17T00:42:38.148Z,1.20
2022-11-17T00:45:42.296Z,2.05
2022-11-17T00:48:44.998Z,2.05
2022-11-17T00:51:47.666Z,2.13
2022-11-17T00:54:50.318Z,2.00
2022-11-17T00:57:52.941Z,0.85
2022-11-17T01:00:57.038Z,1.75
2022-11-17T01:04:04.010Z,1.80
2022-11-17T01:07:07.048Z,1.70
2022-11-17T01:10:10.484Z,1.80
2022-11-17T01:13:13.298Z,2.05
2022-11-17T01:16:18.379Z,1.30
2022-11-17T01:19:21.523Z,2.30
2022-11-17T01:22:24.162Z,1.45
2022-11-17T01:25:26.866Z,1.73
2022-11-17T01:28:29.547Z,2.03
2022-11-17T01:31:35.703Z,1.95
2022-11-17T01:34:38.390Z,2.05
2022-11-17T01:37:41.130Z,2.28
2022-11-17T01:40:43.795Z,1.60
2022-11-17T01:43:47.644Z,1.92
2022-11-17T01:46:55.728Z,2.10
2022-11-17T01:50:05.135Z,2.22
2022-11-17T01:53:10.203Z,1.75
2022-11-17T01:56:14.724Z,2.03
2022-11-17T01:59:19.746Z,2.63
2022-11-17T02:02:24.142Z,1.83
2022-11-17T02:05:30.868Z,2.30
2022-11-17T02:08:34.037Z,2.30
2022-11-17T02:11:36.816Z,2.92
2022-11-17T02:14:40.660Z,0.65
2022-11-17T02:17:50.984Z,1.63
2022-11-17T02:21:07.241Z,1.50
2022-11-17T02:24:29.643Z,1.77
2022-11-17T02:27:53.650Z,1.95
2022-11-17T02:31:07.956Z,2.10
2022-11-17T02:34:18.115Z,2.28
2022-11-17T02:37:36.106Z,2.00
2022-11-17T02:40:48.413Z,2.42
2022-11-17T02:44:07.757Z,2.67
2022-11-17T02:47:15.802Z,2.10
2022-11-17T02:50:24.012Z,2.00
2022-11-17T02:53:31.165Z,1.77
2022-11-17T02:56:53.748Z,2.05
2022-11-17T03:00:01.930Z,2.55
2022-11-17T03:03:16.991Z,2.90
2022-11-17T03:06:28.173Z,2.55
2022-11-17T03:09:43.348Z,2.17
2022-11-17T03:12:57.707Z,2.10
2022-11-17T03:16:23.343Z,2.42
2022-11-17T03:19:35.656Z,1.23
2022-11-17T03:22:47.759Z,1.55
2022-11-17T03:25:57.782Z,1.52
2022-11-17T03:29:03.274Z,2.15
2022-11-17T03:32:10.459Z,1.60
2022-11-17T03:35:16.753Z,2.15
2022-11-17T03:38:21.965Z,2.30
2022-11-17T03:41:24.907Z,1.67
2022-11-17T03:44:28.852Z,2.08
2022-11-17T03:47:34.611Z,1.30
2022-11-17T03:50:38.367Z,1.08
2022-11-17T03:53:42.175Z,2.35
2022-11-17T03:56:48.695Z,1.95
2022-11-17T03:59:54.715Z,2.08
2022-11-17T04:03:01.685Z,1.27
2022-11-17T04:06:07.869Z,1.98
2022-11-17T04:09:12.457Z,2.20
2022-11-17T04:12:34.537Z,2.17
2022-11-17T04:15:57.195Z,1.50
2022-11-17T04:19:01.655Z,1.05
2022-11-17T04:22:04.252Z,2.45
2022-11-17T04:25:07.801Z,2.58
2022-11-17T04:28:31.735Z,1.67
2022-11-17T04:31:35.391Z,2.65
2022-11-17T04:34:42.552Z,0.93
2022-11-17T04:37:45.419Z,1.05
2022-11-17T04:41:02.249Z,1.88
2022-11-17T04:44:07.860Z,2.17
2022-11-17T04:47:12.701Z,1.08
2022-11-17T04:50:17.258Z,1.63
2022-11-17T04:53:20.151Z,1.77
2022-11-17T04:56:23.360Z,2.10
2022-11-17T04:59:37.787Z,1.42
2022-11-17T05:02:50.330Z,0.73
2022-11-17T05:05:57.394Z,3.17
2022-11-17T05:09:00.793Z,1.77
2022-11-17T05:12:20.857Z,1.88
2022-11-17T05:15:44.049Z,2.90
2022-11-17T05:18:45.690Z,3.35
2022-11-17T05:21:49.799Z,2.40
2022-11-17T05:24:51.662Z,2.33
2022-11-17T05:27:56.074Z,2.17
2022-11-17T05:30:58.817Z,2.42
2022-11-17T05:34:01.605Z,1.42
2022-11-17T05:37:06.318Z,2.40
2022-11-17T05:40:09.787Z,3.08
2022-11-17T05:43:12.440Z,2.92
2022-11-17T05:46:15.144Z,1.65
2022-11-17T05:49:17.765Z,2.45
2022-11-17T05:52:21.783Z,3.40
2022-11-17T05:55:24.403Z,2.80
2022-11-17T05:58:29.084Z,0.88
2022-11-17T06:01:34.325Z,3.13
2022-11-17T06:04:37.031Z,2.72
2022-11-17T06:07:44.280Z,2.58
2022-11-17T06:10:46.805Z,1.60
2022-11-17T06:13:49.542Z,3.15
2022-11-17T06:16:57.164Z,2.53
2022-11-17T06:20:02.437Z,2.47
2022-11-17T06:23:07.249Z,0.63
2022-11-17T06:26:11.126Z,3.45
2022-11-17T06:29:13.942Z,3.20
2022-11-17T06:32:20.843Z,2.28
2022-11-17T06:35:33.205Z,3.60
2022-11-17T06:38:37.577Z,1.85
2022-11-17T06:41:42.600Z,2.53
2022-11-17T06:44:46.429Z,1.48
2022-11-17T06:47:49.981Z,2.78
2022-11-17T06:50:52.841Z,1.25
2022-11-17T06:53:57.841Z,2.78
2022-11-17T06:57:00.646Z,2.97
2022-11-17T07:00:03.774Z,3.72
2022-11-17T07:03:07.565Z,2.25
2022-11-17T07:06:12.512Z,2.78
2022-11-17T07:09:16.829Z,2.47
2022-11-17T07:12:19.453Z,2.85
2022-11-17T07:15:25.749Z,3.03
2022-11-17T07:18:29.051Z,3.05
2022-11-17T07:21:32.368Z,2.83
2022-11-17T07:24:36.516Z,2.25
2022-11-17T07:27:39.638Z,0.88
2022-11-17T07:30:44.548Z,3.28
2022-11-17T07:33:47.324Z,3.65
2022-11-17T07:36:49.872Z,2.92
2022-11-17T07:39:54.004Z,2.75
2022-11-17T07:42:56.757Z,2.45
2022-11-17T07:45:59.989Z,3.45
2022-11-17T07:49:02.617Z,2.25
2022-11-17T07:52:05.554Z,2.92
2022-11-17T07:59:21.639Z,2.25
2022-11-17T08:02:25.679Z,3.10
2022-11-17T08:05:30.775Z,2.15
2022-11-17T08:08:34.635Z,3.05
2022-11-17T08:11:39.065Z,2.92
2022-11-17T08:14:41.846Z,2.55
2022-11-17T08:17:44.712Z,2.55
2022-11-17T08:22:06.996Z,3.30
2022-11-17T08:25:09.833Z,2.80
2022-11-17T08:28:14.091Z,2.70
2022-11-17T08:31:21.207Z,2.30
2022-11-17T08:34:46.088Z,3.15
2022-11-17T08:38:45.766Z,2.35
2022-11-17T08:42:11.383Z,0.88
2022-11-17T08:45:23.884Z,2.60
2022-11-17T08:57:49.815Z,2.75
2022-11-17T08:59:27.563Z,1.83
2022-11-17T09:01:05.653Z,3.22
2022-11-17T09:09:49.700Z,3.35
2022-11-17T09:13:18.696Z,4.05
2022-11-17T09:20:48.441Z,1.13
2022-11-17T09:23:57.542Z,3.60
2022-11-17T09:27:02.838Z,2.00
2022-11-17T09:30:11.980Z,2.35
2022-11-17T09:33:25.608Z,3.58
2022-11-17T09:37:00.530Z,2.97
2022-11-17T09:40:05.628Z,3.22
2022-11-17T09:43:34.651Z,2.55
2022-11-17T09:47:02.265Z,0.95
2022-11-17T09:50:54.273Z,3.85
2022-11-17T09:54:18.960Z,1.90
2022-11-17T09:57:29.824Z,3.45
2022-11-17T10:00:33.071Z,3.95
2022-11-17T10:03:42.025Z,3.42
2022-11-17T10:06:51.286Z,3.03
2022-11-17T10:10:04.371Z,3.50
2022-11-17T10:13:14.271Z,1.08
2022-11-17T10:16:17.114Z,2.38
2022-11-17T10:20:13.598Z,2.13
2022-11-17T10:23:22.595Z,3.35
2022-11-17T10:26:27.556Z,2.55
2022-11-17T10:29:32.018Z,3.03
2022-11-17T10:37:46.395Z,3.65
2022-11-17T10:40:50.231Z,3.33
2022-11-17T10:47:48.623Z,2.00
2022-11-17T10:51:12.505Z,4.00
2022-11-17T10:54:44.155Z,3.78
2022-11-17T10:57:57.789Z,3.13
2022-11-17T11:01:11.835Z,4.20
2022-11-17T11:04:41.641Z,4.45
2022-11-17T11:07:46.476Z,4.28
2022-11-17T11:10:54.752Z,3.80
2022-11-17T11:13:59.474Z,4.47
2022-11-17T11:21:18.284Z,2.70
2022-11-17T11:24:30.740Z,3.88
2022-11-17T11:27:42.963Z,3.90
2022-11-17T11:30:49.001Z,4.15
2022-11-17T11:33:54.949Z,1.80
2022-11-17T11:37:09.372Z,2.80
2022-11-17T11:40:16.016Z,2.40
2022-11-17T11:43:24.187Z,3.42
2022-11-17T11:46:32.313Z,3.35
2022-11-17T11:49:37.271Z,1.92
2022-11-17T11:52:42.333Z,3.58
2022-11-17T11:55:47.061Z,3.97
2022-11-17T11:58:53.408Z,3.67
2022-11-17T12:02:03.079Z,3.17
2022-11-17T12:05:12.220Z,3.47
2022-11-17T12:08:18.762Z,2.28
2022-11-17T12:11:45.177Z,3.25
2022-11-17T12:15:08.264Z,4.30
2022-11-17T12:18:14.613Z,4.20
2022-11-17T12:21:51.838Z,2.65
2022-11-17T12:24:58.284Z,3.90
2022-11-17T12:28:20.037Z,3.10
2022-11-17T12:31:41.390Z,4.15
2022-11-17T12:34:43.958Z,4.20
2022-11-17T12:37:46.627Z,2.55
2022-11-17T12:40:51.107Z,4.70
2022-11-17T12:44:29.687Z,1.83
2022-11-17T12:47:33.316Z,3.92
2022-11-17T12:50:45.758Z,1.45
2022-11-17T12:53:53.488Z,4.18
2022-11-17T12:57:01.739Z,2.03
2022-11-17T13:00:07.688Z,3.78
2022-11-17T13:03:15.000Z,4.43
2022-11-17T13:06:34.891Z,5.00
2022-11-17T13:09:38.943Z,4.63
2022-11-17T13:12:43.202Z,3.80
2022-11-17T13:15:46.812Z,4.93
2022-11-17T13:18:50.250Z,5.07
2022-11-17T13:22:01.008Z,3.63
2022-11-17T13:25:44.455Z,4.93
2022-11-17T13:28:52.642Z,3.90
2022-11-17T13:32:18.422Z,4.57
2022-11-17T13:35:25.707Z,1.17
2022-11-17T13:38:28.524Z,4.28
2022-11-17T13:45:03.531Z,2.83
2022-11-17T13:48:06.621Z,4.10
2022-11-17T13:51:46.418Z,3.72
2022-11-17T13:59:19.372Z,4.93
2022-11-17T14:02:32.072Z,4.38
2022-11-17T14:05:36.361Z,4.20
2022-11-17T14:08:43.701Z,4.97
2022-11-17T14:11:52.784Z,3.55
2022-11-17T14:15:14.810Z,4.45
2022-11-17T14:18:25.054Z,3.45
2022-11-17T14:21:51.219Z,3.22
2022-11-17T14:24:54.076Z,3.38
2022-11-17T14:28:06.890Z,4.13
2022-11-17T14:31:12.317Z,3.97
2022-11-17T14:34:18.614Z,2.88
2022-11-17T14:37:24.232Z,5.53
2022-11-17T14:40:27.069Z,3.90
2022-11-17T14:43:30.465Z,4.20
2022-11-17T14:46:41.167Z,3.25
2022-11-17T14:49:48.763Z,4.45
2022-11-17T14:53:11.706Z,3.13
2022-11-17T14:56:18.027Z,3.58
2022-11-17T14:59:22.912Z,3.03
2022-11-17T15:02:26.824Z,3.40
2022-11-17T15:05:31.369Z,2.60
2022-11-17T15:08:35.452Z,3.85
2022-11-17T15:11:39.585Z,3.60
2022-11-17T15:14:43.951Z,3.40
2022-11-17T15:17:47.191Z,3.58
2022-11-17T15:21:00.221Z,3.90
2022-11-17T15:24:04.051Z,2.47
2022-11-17T15:27:06.551Z,3.63
2022-11-17T15:30:09.507Z,3.85
2022-11-17T15:33:15.501Z,2.65
2022-11-17T15:36:20.499Z,1.42
2022-11-17T15:39:28.280Z,2.92
2022-11-17T15:42:31.336Z,3.53
2022-11-17T15:45:34.123Z,3.38
2022-11-17T15:48:38.877Z,3.75
2022-11-17T15:51:44.538Z,3.00
2022-11-17T15:54:51.724Z,2.58
2022-11-17T15:57:55.515Z,1.63
2022-11-17T16:01:08.376Z,3.58
2022-11-17T16:04:12.138Z,1.42
2022-11-17T16:07:16.512Z,3.08
2022-11-17T16:10:20.610Z,3.90
2022-11-17T16:13:23.196Z,2.95
2022-11-17T16:16:26.876Z,3.17
2022-11-17T16:19:33.274Z,3.15
2022-11-17T16:22:37.835Z,2.72
2022-11-17T16:25:40.758Z,3.08
2022-11-17T16:28:44.161Z,3.85
2022-11-17T16:31:52.780Z,3.38
2022-11-17T16:34:55.431Z,3.90
2022-11-17T16:37:59.374Z,3.25
2022-11-17T16:41:03.665Z,3.58
2022-11-17T16:44:08.102Z,4.03
2022-11-17T16:47:11.458Z,3.67
2022-11-17T16:50:14.152Z,2.88
2022-11-17T16:53:18.286Z,4.10
2022-11-17T16:59:43.143Z,2.85
2022-11-17T17:02:51.309Z,3.75
2022-11-17T17:05:57.121Z,5.18
2022-11-17T17:09:02.897Z,4.45
2022-11-17T17:12:09.267Z,3.10
2022-11-17T17:15:12.153Z,4.07
2022-11-17T17:18:15.650Z,4.13
2022-11-17T17:21:20.980Z,4.28
2022-11-17T17:24:25.462Z,2.85
2022-11-17T17:27:30.488Z,3.45
2022-11-17T17:30:33.991Z,4.05
2022-11-17T17:33:37.264Z,3.03
2022-11-17T17:41:17.344Z,3.83
2022-11-17T17:44:27.538Z,3.85
2022-11-17T17:47:30.576Z,4.13
2022-11-17T17:50:33.291Z,4.35
2022-11-17T17:53:36.221Z,4.38
2022-11-17T17:56:40.109Z,4.13
2022-11-17T17:59:42.666Z,4.82
2022-11-17T18:02:46.068Z,3.78
2022-11-17T18:05:51.036Z,4.10
2022-11-17T18:08:53.582Z,4.35
2022-11-17T18:11:58.376Z,3.72
2022-11-17T18:15:01.866Z,3.13
2022-11-17T18:18:05.411Z,4.30
2022-11-17T18:21:12.295Z,5.05
2022-11-17T18:24:16.137Z,4.22
2022-11-17T18:27:22.388Z,4.47
2022-11-17T18:30:25.272Z,5.30
2022-11-17T18:33:29.071Z,4.60
2022-11-17T18:36:31.805Z,4.40
2022-11-17T18:39:34.545Z,4.28
2022-11-17T18:46:23.294Z,4.05
2022-11-17T18:49:26.066Z,3.30
2022-11-17T18:52:31.519Z,4.00
2022-11-17T18:55:34.444Z,3.85
2022-11-17T18:58:37.717Z,2.50
2022-11-17T19:01:46.350Z,4.28
2022-11-17T19:04:49.327Z,2.97
2022-11-17T19:07:56.157Z,3.72
2022-11-17T19:11:06.572Z,3.75
2022-11-17T19:14:13.381Z,3.38
2022-11-17T19:17:18.314Z,4.75
2022-11-17T19:20:22.455Z,3.90
2022-11-17T19:23:25.968Z,4.45
2022-11-17T19:26:33.238Z,3.90
2022-11-17T19:29:39.103Z,3.38
2022-11-17T19:32:50.977Z,4.82
2022-11-17T19:35:54.285Z,3.95
2022-11-17T19:39:03.567Z,3.00
2022-11-17T19:42:07.375Z,4.88
2022-11-17T19:45:10.229Z,1.83
2022-11-17T19:48:16.302Z,3.92
2022-11-17T19:51:20.905Z,4.40
2022-11-17T19:54:28.265Z,4.65
2022-11-17T19:57:31.142Z,4.25
2022-11-17T20:00:33.938Z,4.38
2022-11-17T20:03:41.254Z,4.18
2022-11-17T20:06:48.367Z,3.25
2022-11-17T20:09:55.150Z,4.72
2022-11-17T20:12:58.178Z,3.53
2022-11-17T20:16:14.996Z,4.55
2022-11-17T20:19:20.903Z,5.43
2022-11-17T20:22:23.718Z,2.70
2022-11-17T20:25:26.837Z,4.32
2022-11-17T20:28:32.211Z,4.35
2022-11-17T20:31:36.290Z,4.30
2022-11-17T20:34:40.684Z,4.00
2022-11-17T20:37:43.849Z,4.88
2022-11-17T20:40:46.835Z,4.30
2022-11-17T20:43:50.249Z,4.65
2022-11-17T20:46:56.231Z,4.50
2022-11-17T20:50:00.740Z,4.55
2022-11-17T20:53:06.851Z,3.78
2022-11-17T20:56:10.464Z,5.10
2022-11-17T20:59:18.547Z,4.25
2022-11-17T21:02:23.674Z,4.65
2022-11-17T21:05:30.361Z,4.30
2022-11-17T21:08:34.243Z,4.35
2022-11-17T21:11:54.595Z,5.25
2022-11-17T21:14:57.391Z,4.68
2022-11-17T21:18:18.141Z,4.57
2022-11-17T21:21:24.301Z,5.03
2022-11-17T21:24:27.808Z,4.50
2022-11-17T21:27:30.718Z,4.40
2022-11-17T21:30:34.243Z,5.30
2022-11-17T21:33:37.060Z,5.00
2022-11-17T21:36:41.163Z,5.90
2022-11-17T21:39:44.036Z,4.78
2022-11-17T21:42:46.730Z,5.47
2022-11-17T21:45:49.438Z,5.63
2022-11-17T21:48:52.399Z,5.78
2022-11-17T21:51:56.234Z,4.88
2022-11-17T21:54:58.775Z,6.72
2022-11-17T21:58:01.362Z,4.30
2022-11-17T22:01:06.966Z,5.70
2022-11-17T22:04:11.656Z,5.80
2022-11-17T22:07:15.593Z,5.88
2022-11-17T22:10:18.458Z,6.13
2022-11-17T22:13:21.178Z,4.55
2022-11-17T22:16:23.769Z,5.80
2022-11-17T22:19:29.050Z,4.18
2022-11-17T22:22:33.172Z,3.80
2022-11-17T22:25:45.302Z,4.72
2022-11-17T22:28:51.181Z,5.40
2022-11-17T22:31:53.927Z,5.78
2022-11-17T22:34:56.643Z,4.43
2022-11-17T22:38:00.750Z,5.00
2022-11-17T22:41:04.017Z,6.00
2022-11-17T22:44:07.245Z,5.25
2022-11-17T22:47:09.971Z,4.70
2022-11-17T22:50:13.046Z,4.85
2022-11-17T22:53:17.131Z,4.10
2022-11-17T22:56:20.028Z,5.65
2022-11-17T22:59:23.564Z,4.68
2022-11-17T23:02:26.261Z,5.60
2022-11-17T23:05:29.278Z,5.28
2022-11-17T23:08:33.597Z,4.82
2022-11-17T23:11:38.014Z,5.40
2022-11-17T23:14:41.317Z,5.10
2022-11-17T23:17:44.349Z,5.13
2022-11-17T23:20:46.877Z,2.58
2022-11-17T23:23:51.245Z,6.15
2022-11-17T23:26:54.369Z,4.25
2022-11-17T23:29:58.007Z,5.18
2022-11-17T23:33:01.978Z,4.82
2022-11-17T23:36:05.232Z,4.68
2022-11-17T23:39:09.465Z,5.03
2022-11-17T23:42:12.370Z,5.55
2022-11-17T23:45:15.368Z,5.55
2022-11-17T23:48:18.138Z,4.65
2022-11-17T23:51:21.518Z,4.72
2022-11-17T23:54:25.611Z,3.67
2022-11-17T23:57:28.432Z,6.03
